sensor_id;sensor_type;location;lat;lon;timestamp;pressure;altitude;pressure_sealevel;temperature;humidity
75208;BME280;63795;55.684;37.864;2023-04-28T00:01:06;99291.28;;;12.59;63.80
75208;BME280;63795;55.684;37.864;2023-04-28T00:06:06;99285.22;;;12.57;63.92
75208;BME280;63795;55.684;37.864;2023-04-28T00:11:10;99297.09;;;12.52;64.37
75208;BME280;63795;55.684;37.864;2023-04-28T00:16:10;99289.06;;;12.47;64.02
75208;BME280;63795;55.684;37.864;2023-04-28T00:21:11;99283.81;;;12.46;63.98
75208;BME280;63795;55.684;37.864;2023-04-28T00:26:11;99272.94;;;12.41;64.16
75208;BME280;63795;55.684;37.864;2023-04-28T00:31:13;99284.00;;;12.35;64.57
75208;BME280;63795;55.684;37.864;2023-04-28T00:36:15;99278.94;;;12.23;65.48
75208;BME280;63795;55.684;37.864;2023-04-28T00:41:16;99270.53;;;12.16;65.15
75208;BME280;63795;55.684;37.864;2023-04-28T00:46:31;99276.31;;;12.09;65.49
75208;BME280;63795;55.684;37.864;2023-04-28T00:51:32;99278.94;;;12.00;65.97
75208;BME280;63795;55.684;37.864;2023-04-28T00:56:33;99270.50;;;11.93;65.16
75208;BME280;63795;55.684;37.864;2023-04-28T01:01:34;99263.72;;;11.87;66.59
75208;BME280;63795;55.684;37.864;2023-04-28T01:06:36;99271.78;;;11.88;66.57
75208;BME280;63795;55.684;37.864;2023-04-28T01:11:37;99273.84;;;11.88;66.21
75208;BME280;63795;55.684;37.864;2023-04-28T01:16:38;99280.50;;;11.78;66.81
75208;BME280;63795;55.684;37.864;2023-04-28T01:21:38;99281.84;;;11.70;67.51
75208;BME280;63795;55.684;37.864;2023-04-28T01:26:39;99288.34;;;11.67;67.91
75208;BME280;63795;55.684;37.864;2023-04-28T01:31:39;99279.50;;;11.61;67.81
75208;BME280;63795;55.684;37.864;2023-04-28T01:36:40;99284.75;;;11.63;67.83
75208;BME280;63795;55.684;37.864;2023-04-28T01:41:40;99286.06;;;11.55;67.97
75208;BME280;63795;55.684;37.864;2023-04-28T01:46:41;99292.25;;;11.50;67.92
75208;BME280;63795;55.684;37.864;2023-04-28T01:51:41;99292.31;;;11.43;68.77
75208;BME280;63795;55.684;37.864;2023-04-28T01:56:42;99285.88;;;11.39;68.81
75208;BME280;63795;55.684;37.864;2023-04-28T02:01:42;99274.16;;;11.37;68.21
75208;BME280;63795;55.684;37.864;2023-04-28T02:06:43;99271.72;;;11.39;67.63
75208;BME280;63795;55.684;37.864;2023-04-28T02:11:43;99266.84;;;11.39;68.12
75208;BME280;63795;55.684;37.864;2023-04-28T02:16:43;99266.03;;;11.39;68.76
75208;BME280;63795;55.684;37.864;2023-04-28T02:21:44;99266.94;;;11.32;67.69
75208;BME280;63795;55.684;37.864;2023-04-28T02:26:45;99275.78;;;11.38;69.13
75208;BME280;63795;55.684;37.864;2023-04-28T02:31:45;99273.78;;;11.35;69.16
75208;BME280;63795;55.684;37.864;2023-04-28T02:36:46;99278.31;;;11.32;68.49
75208;BME280;63795;55.684;37.864;2023-04-28T02:41:47;99290.50;;;11.29;68.96
75208;BME280;63795;55.684;37.864;2023-04-28T02:46:48;99297.06;;;11.23;69.58
75208;BME280;63795;55.684;37.864;2023-04-28T02:51:48;99290.63;;;11.19;69.91
75208;BME280;63795;55.684;37.864;2023-04-28T02:56:48;99287.78;;;11.19;69.86
75208;BME280;63795;55.684;37.864;2023-04-28T03:01:49;99299.56;;;11.17;69.83
75208;BME280;63795;55.684;37.864;2023-04-28T03:06:51;99297.91;;;11.20;69.85
75208;BME280;63795;55.684;37.864;2023-04-28T03:11:51;99281.72;;;11.20;69.83
75208;BME280;63795;55.684;37.864;2023-04-28T03:16:51;99293.00;;;11.24;69.67
75208;BME280;63795;55.684;37.864;2023-04-28T03:21:52;99298.63;;;11.27;69.84
75208;BME280;63795;55.684;37.864;2023-04-28T03:26:53;99312.38;;;11.29;69.71
75208;BME280;63795;55.684;37.864;2023-04-28T03:31:54;99322.91;;;11.32;69.80
75208;BME280;63795;55.684;37.864;2023-04-28T03:36:54;99322.91;;;11.32;69.69
75208;BME280;63795;55.684;37.864;2023-04-28T03:41:54;99318.81;;;11.33;70.29
75208;BME280;63795;55.684;37.864;2023-04-28T03:46:55;99321.19;;;11.38;69.99
75208;BME280;63795;55.684;37.864;2023-04-28T03:51:55;99321.06;;;11.48;69.63
75208;BME280;63795;55.684;37.864;2023-04-28T03:56:56;99314.94;;;11.50;69.41
75208;BME280;63795;55.684;37.864;2023-04-28T04:01:57;99324.97;;;11.58;69.45
75208;BME280;63795;55.684;37.864;2023-04-28T04:06:58;99315.53;;;11.68;68.88
75208;BME280;63795;55.684;37.864;2023-04-28T04:11:58;99316.66;;;11.74;68.69
75208;BME280;63795;55.684;37.864;2023-04-28T04:17:00;99332.56;;;11.94;68.39
75208;BME280;63795;55.684;37.864;2023-04-28T04:22:00;99326.19;;;12.14;67.95
75208;BME280;63795;55.684;37.864;2023-04-28T04:27:01;99331.34;;;12.22;67.76
75208;BME280;63795;55.684;37.864;2023-04-28T04:32:01;99341.59;;;12.39;67.32
75208;BME280;63795;55.684;37.864;2023-04-28T04:37:02;99343.75;;;12.55;66.86
75208;BME280;63795;55.684;37.864;2023-04-28T04:42:03;99344.25;;;12.73;66.44
75208;BME280;63795;55.684;37.864;2023-04-28T04:47:03;99360.59;;;12.89;65.98
75208;BME280;63795;55.684;37.864;2023-04-28T04:52:03;99351.88;;;12.99;65.87
75208;BME280;63795;55.684;37.864;2023-04-28T04:57:05;99369.53;;;13.14;65.43
75208;BME280;63795;55.684;37.864;2023-04-28T05:02:06;99373.03;;;13.21;65.12
75208;BME280;63795;55.684;37.864;2023-04-28T05:07:07;99371.72;;;13.26;65.08
75208;BME280;63795;55.684;37.864;2023-04-28T05:12:07;99363.53;;;13.28;65.21
75208;BME280;63795;55.684;37.864;2023-04-28T05:17:08;99367.22;;;13.28;65.50
75208;BME280;63795;55.684;37.864;2023-04-28T05:22:08;99374.78;;;13.35;64.93
75208;BME280;63795;55.684;37.864;2023-04-28T05:27:09;99373.09;;;13.37;65.29
75208;BME280;63795;55.684;37.864;2023-04-28T05:32:09;99372.16;;;13.44;64.85
75208;BME280;63795;55.684;37.864;2023-04-28T05:37:10;99377.78;;;13.47;64.85
75208;BME280;63795;55.684;37.864;2023-04-28T05:42:10;99380.41;;;13.58;64.58
75208;BME280;63795;55.684;37.864;2023-04-28T05:47:11;99379.88;;;13.63;64.54
75208;BME280;63795;55.684;37.864;2023-04-28T05:52:11;99364.25;;;13.71;64.43
75208;BME280;63795;55.684;37.864;2023-04-28T05:57:12;99362.50;;;13.77;64.88
75208;BME280;63795;55.684;37.864;2023-04-28T06:02:12;99355.94;;;13.80;65.01
75208;BME280;63795;55.684;37.864;2023-04-28T06:07:13;99359.88;;;13.86;64.63
75208;BME280;63795;55.684;37.864;2023-04-28T06:12:13;99367.72;;;13.98;64.65
75208;BME280;63795;55.684;37.864;2023-04-28T06:17:14;99349.72;;;14.01;64.41
75208;BME280;63795;55.684;37.864;2023-04-28T06:22:14;99362.13;;;14.27;63.92
75208;BME280;63795;55.684;37.864;2023-04-28T06:27:15;99368.06;;;14.84;62.97
75208;BME280;63795;55.684;37.864;2023-04-28T06:32:15;99372.91;;;15.16;62.40
75208;BME280;63795;55.684;37.864;2023-04-28T06:37:16;99380.16;;;15.20;62.38
75208;BME280;63795;55.684;37.864;2023-04-28T06:42:16;99383.25;;;15.26;62.04
75208;BME280;63795;55.684;37.864;2023-04-28T06:47:18;99384.94;;;15.23;62.39
75208;BME280;63795;55.684;37.864;2023-04-28T06:52:18;99388.75;;;15.04;63.40
75208;BME280;63795;55.684;37.864;2023-04-28T06:57:21;99390.53;;;14.82;63.92
75208;BME280;63795;55.684;37.864;2023-04-28T07:02:21;99396.97;;;14.70;64.51
75208;BME280;63795;55.684;37.864;2023-04-28T07:07:22;99392.84;;;14.71;65.67
75208;BME280;63795;55.684;37.864;2023-04-28T07:12:22;99385.72;;;14.63;65.46
75208;BME280;63795;55.684;37.864;2023-04-28T07:17:23;99397.59;;;14.62;65.80
75208;BME280;63795;55.684;37.864;2023-04-28T07:22:23;99394.03;;;14.58;65.91
75208;BME280;63795;55.684;37.864;2023-04-28T07:27:24;99395.72;;;14.55;66.05
75208;BME280;63795;55.684;37.864;2023-04-28T07:32:24;99396.97;;;14.70;65.36
75208;BME280;63795;55.684;37.864;2023-04-28T07:37:25;99398.84;;;14.77;65.10
75208;BME280;63795;55.684;37.864;2023-04-28T07:42:25;99396.34;;;14.79;65.99
75208;BME280;63795;55.684;37.864;2023-04-28T07:47:26;99403.50;;;14.71;65.54
75208;BME280;63795;55.684;37.864;2023-04-28T07:52:28;99406.50;;;14.64;66.57
75208;BME280;63795;55.684;37.864;2023-04-28T07:57:29;99393.31;;;14.70;66.55
75208;BME280;63795;55.684;37.864;2023-04-28T08:02:30;99388.16;;;14.81;66.67
75208;BME280;63795;55.684;37.864;2023-04-28T08:07:30;99390.81;;;14.88;66.74
75208;BME280;63795;55.684;37.864;2023-04-28T08:12:31;99391.41;;;14.95;66.13
75208;BME280;63795;55.684;37.864;2023-04-28T08:17:31;99393.13;;;14.93;66.24
75208;BME280;63795;55.684;37.864;2023-04-28T08:22:32;99389.94;;;14.91;65.98
75208;BME280;63795;55.684;37.864;2023-04-28T08:27:32;99390.81;;;14.88;66.17
75208;BME280;63795;55.684;37.864;2023-04-28T08:32:33;99390.44;;;15.02;66.16
75208;BME280;63795;55.684;37.864;2023-04-28T08:37:34;99392.28;;;15.24;65.21
75208;BME280;63795;55.684;37.864;2023-04-28T08:42:35;99391.97;;;15.35;65.00
75208;BME280;63795;55.684;37.864;2023-04-28T08:47:38;99398.13;;;15.33;64.53
75208;BME280;63795;55.684;37.864;2023-04-28T08:52:41;99395.94;;;15.25;64.70
75208;BME280;63795;55.684;37.864;2023-04-28T08:57:49;99397.06;;;15.27;64.75
75208;BME280;63795;55.684;37.864;2023-04-28T09:02:54;99392.72;;;15.23;65.49
75208;BME280;63795;55.684;37.864;2023-04-28T09:07:54;99393.25;;;15.18;65.68
75208;BME280;63795;55.684;37.864;2023-04-28T09:12:55;99395.31;;;15.17;66.93
75208;BME280;63795;55.684;37.864;2023-04-28T09:17:57;99398.63;;;15.16;66.41
75208;BME280;63795;55.684;37.864;2023-04-28T09:23:17;99392.31;;;15.08;67.26
75208;BME280;63795;55.684;37.864;2023-04-28T09:28:21;99395.16;;;15.08;67.00
75208;BME280;63795;55.684;37.864;2023-04-28T09:33:22;99400.78;;;14.96;67.25
75208;BME280;63795;55.684;37.864;2023-04-28T09:38:23;99393.50;;;14.79;69.13
75208;BME280;63795;55.684;37.864;2023-04-28T09:43:25;99392.69;;;14.78;67.80
75208;BME280;63795;55.684;37.864;2023-04-28T09:48:38;99393.56;;;14.75;68.74
75208;BME280;63795;55.684;37.864;2023-04-28T09:53:38;99391.38;;;14.67;69.10
75208;BME280;63795;55.684;37.864;2023-04-28T09:58:39;99395.44;;;14.33;70.49
75208;BME280;63795;55.684;37.864;2023-04-28T10:03:43;99401.78;;;13.86;73.18
75208;BME280;63795;55.684;37.864;2023-04-28T10:08:45;99400.41;;;13.74;73.47
75208;BME280;63795;55.684;37.864;2023-04-28T10:13:47;99412.31;;;13.69;76.75
75208;BME280;63795;55.684;37.864;2023-04-28T10:18:49;99422.41;;;13.54;77.62
75208;BME280;63795;55.684;37.864;2023-04-28T10:24:11;99412.56;;;13.58;77.04
75208;BME280;63795;55.684;37.864;2023-04-28T10:29:14;99410.13;;;13.57;74.75
75208;BME280;63795;55.684;37.864;2023-04-28T10:34:21;99402.25;;;13.84;75.07
75208;BME280;63795;55.684;37.864;2023-04-28T10:39:21;99415.31;;;14.17;74.07
75208;BME280;63795;55.684;37.864;2023-04-28T11:00:32;99402.06;;;15.23;71.01
75208;BME280;63795;55.684;37.864;2023-04-28T11:05:33;99407.53;;;15.18;70.71
75208;BME280;63795;55.684;37.864;2023-04-28T11:16:14;99410.16;;;14.96;70.42
75208;BME280;63795;55.684;37.864;2023-04-28T11:21:17;99411.13;;;14.90;72.01
75208;BME280;63795;55.684;37.864;2023-04-28T11:26:18;99415.41;;;14.66;72.15
75208;BME280;63795;55.684;37.864;2023-04-28T11:31:20;99420.03;;;14.43;74.04
75208;BME280;63795;55.684;37.864;2023-04-28T11:36:29;99417.66;;;14.22;75.99
75208;BME280;63795;55.684;37.864;2023-04-28T11:41:39;99425.13;;;14.16;76.61
75208;BME280;63795;55.684;37.864;2023-04-28T11:46:50;99416.84;;;14.22;76.85
75208;BME280;63795;55.684;37.864;2023-04-28T11:51:56;99410.25;;;14.25;75.63
75208;BME280;63795;55.684;37.864;2023-04-28T11:56:57;99415.13;;;14.28;74.70
75208;BME280;63795;55.684;37.864;2023-04-28T12:02:03;99396.88;;;14.41;73.36
75208;BME280;63795;55.684;37.864;2023-04-28T12:07:14;99408.84;;;14.53;73.03
75208;BME280;63795;55.684;37.864;2023-04-28T12:12:28;99407.75;;;14.46;73.71
75208;BME280;63795;55.684;37.864;2023-04-28T12:22:42;99389.38;;;14.47;73.18
75208;BME280;63795;55.684;37.864;2023-04-28T12:28:04;99399.00;;;14.54;73.90
75208;BME280;63795;55.684;37.864;2023-04-28T12:33:05;99391.72;;;14.53;72.93
75208;BME280;63795;55.684;37.864;2023-04-28T12:38:10;99377.25;;;14.43;73.39
75208;BME280;63795;55.684;37.864;2023-04-28T12:43:10;99391.16;;;14.58;73.12
75208;BME280;63795;55.684;37.864;2023-04-28T12:48:11;99390.09;;;14.68;73.03
75208;BME280;63795;55.684;37.864;2023-04-28T12:53:11;99380.91;;;14.76;72.19
75208;BME280;63795;55.684;37.864;2023-04-28T12:58:12;99383.94;;;14.85;72.09
75208;BME280;63795;55.684;37.864;2023-04-28T13:03:31;99384.13;;;14.94;71.33
75208;BME280;63795;55.684;37.864;2023-04-28T13:08:31;99376.88;;;14.90;71.20
75208;BME280;63795;55.684;37.864;2023-04-28T13:13:33;99379.13;;;14.82;70.84
75208;BME280;63795;55.684;37.864;2023-04-28T13:18:33;99379.75;;;14.74;71.00
75208;BME280;63795;55.684;37.864;2023-04-28T13:23:34;99388.88;;;14.69;71.40
75208;BME280;63795;55.684;37.864;2023-04-28T13:28:34;99377.97;;;14.47;72.15
75208;BME280;63795;55.684;37.864;2023-04-28T13:33:35;99395.63;;;14.23;73.24
75208;BME280;63795;55.684;37.864;2023-04-28T13:38:35;99404.06;;;13.94;72.95
75208;BME280;63795;55.684;37.864;2023-04-28T13:43:36;99411.09;;;13.70;75.82
75208;BME280;63795;55.684;37.864;2023-04-28T13:48:37;99418.31;;;13.55;75.65
75208;BME280;63795;55.684;37.864;2023-04-28T13:53:38;99417.66;;;13.47;74.90
75208;BME280;63795;55.684;37.864;2023-04-28T13:58:38;99422.03;;;13.52;76.45
75208;BME280;63795;55.684;37.864;2023-04-28T14:03:39;99421.31;;;13.48;76.52
75208;BME280;63795;55.684;37.864;2023-04-28T14:08:40;99422.91;;;13.49;77.05
75208;BME280;63795;55.684;37.864;2023-04-28T14:13:41;99433.56;;;13.45;76.38
75208;BME280;63795;55.684;37.864;2023-04-28T14:18:42;99437.66;;;13.44;76.15
75208;BME280;63795;55.684;37.864;2023-04-28T14:23:42;99443.09;;;13.35;75.71
75208;BME280;63795;55.684;37.864;2023-04-28T14:28:42;99435.19;;;13.23;77.03
75208;BME280;63795;55.684;37.864;2023-04-28T14:33:44;99442.03;;;13.06;76.60
75208;BME280;63795;55.684;37.864;2023-04-28T14:38:44;99440.53;;;12.98;75.45
75208;BME280;63795;55.684;37.864;2023-04-28T14:43:45;99438.28;;;12.86;77.19
75208;BME280;63795;55.684;37.864;2023-04-28T14:48:45;99445.47;;;12.70;76.83
75208;BME280;63795;55.684;37.864;2023-04-28T14:53:46;99444.53;;;12.54;77.17
75208;BME280;63795;55.684;37.864;2023-04-28T14:58:47;99438.63;;;12.41;76.67
75208;BME280;63795;55.684;37.864;2023-04-28T15:03:48;99431.13;;;12.28;77.11
75208;BME280;63795;55.684;37.864;2023-04-28T15:08:48;99437.81;;;12.14;76.42
75208;BME280;63795;55.684;37.864;2023-04-28T15:13:49;99444.59;;;11.93;75.60
75208;BME280;63795;55.684;37.864;2023-04-28T15:18:49;99455.66;;;11.84;76.24
75208;BME280;63795;55.684;37.864;2023-04-28T15:23:50;99457.78;;;11.77;76.81
75208;BME280;63795;55.684;37.864;2023-04-28T15:28:50;99467.63;;;11.69;76.00
75208;BME280;63795;55.684;37.864;2023-04-28T15:33:53;99473.25;;;11.72;76.00
75208;BME280;63795;55.684;37.864;2023-04-28T15:38:54;99469.66;;;11.68;76.00
75208;BME280;63795;55.684;37.864;2023-04-28T15:43:55;99486.03;;;11.54;75.43
75208;BME280;63795;55.684;37.864;2023-04-28T15:48:56;99488.53;;;11.48;76.25
75208;BME280;63795;55.684;37.864;2023-04-28T15:53:57;99497.06;;;11.45;75.75
75208;BME280;63795;55.684;37.864;2023-04-28T15:58:58;99502.28;;;11.50;75.93
75208;BME280;63795;55.684;37.864;2023-04-28T16:03:58;99496.69;;;11.43;75.22
75208;BME280;63795;55.684;37.864;2023-04-28T16:08:59;99491.84;;;11.40;75.02
75208;BME280;63795;55.684;37.864;2023-04-28T16:14:00;99490.91;;;11.12;74.17
75208;BME280;63795;55.684;37.864;2023-04-28T16:19:00;99486.13;;;11.02;74.86
75208;BME280;63795;55.684;37.864;2023-04-28T16:24:00;99489.91;;;10.89;74.38
75208;BME280;63795;55.684;37.864;2023-04-28T16:29:03;99514.25;;;10.83;74.12
75208;BME280;63795;55.684;37.864;2023-04-28T16:34:04;99506.59;;;10.76;74.30
75208;BME280;63795;55.684;37.864;2023-04-28T16:39:04;99491.66;;;10.72;74.42
75208;BME280;63795;55.684;37.864;2023-04-28T16:44:05;99483.97;;;10.73;75.31
75208;BME280;63795;55.684;37.864;2023-04-28T16:49:05;99498.44;;;10.85;74.49
75208;BME280;63795;55.684;37.864;2023-04-28T16:54:06;99503.75;;;10.80;73.37
75208;BME280;63795;55.684;37.864;2023-04-28T16:59:06;99505.84;;;10.69;73.61
75208;BME280;63795;55.684;37.864;2023-04-28T17:04:07;99511.97;;;10.60;73.54
75208;BME280;63795;55.684;37.864;2023-04-28T17:09:07;99512.38;;;10.62;73.72
75208;BME280;63795;55.684;37.864;2023-04-28T17:14:09;99527.81;;;10.54;73.47
75208;BME280;63795;55.684;37.864;2023-04-28T17:19:10;99529.09;;;10.43;73.77
75208;BME280;63795;55.684;37.864;2023-04-28T17:24:10;99539.25;;;10.37;73.45
75208;BME280;63795;55.684;37.864;2023-04-28T17:29:11;99557.09;;;10.34;73.94
75208;BME280;63795;55.684;37.864;2023-04-28T17:34:11;99532.88;;;10.22;74.28
75208;BME280;63795;55.684;37.864;2023-04-28T17:39:12;99562.03;;;10.19;73.98
75208;BME280;63795;55.684;37.864;2023-04-28T17:44:13;99562.06;;;10.05;73.66
75208;BME280;63795;55.684;37.864;2023-04-28T17:49:13;99568.53;;;9.98;74.34
75208;BME280;63795;55.684;37.864;2023-04-28T17:54:14;99553.19;;;9.92;74.73
75208;BME280;63795;55.684;37.864;2023-04-28T17:59:14;99564.56;;;9.75;74.92
75208;BME280;63795;55.684;37.864;2023-04-28T18:04:15;99566.25;;;9.55;75.04
75208;BME280;63795;55.684;37.864;2023-04-28T18:09:16;99565.84;;;9.42;75.92
75208;BME280;63795;55.684;37.864;2023-04-28T18:14:17;99567.09;;;9.37;75.60
75208;BME280;63795;55.684;37.864;2023-04-28T18:19:17;99571.13;;;9.36;75.53
75208;BME280;63795;55.684;37.864;2023-04-28T18:24:17;99575.16;;;9.32;76.06
75208;BME280;63795;55.684;37.864;2023-04-28T18:29:18;99570.75;;;9.27;75.86
75208;BME280;63795;55.684;37.864;2023-04-28T18:34:19;99557.38;;;9.24;75.75
75208;BME280;63795;55.684;37.864;2023-04-28T18:39:20;99578.81;;;9.15;75.85
75208;BME280;63795;55.684;37.864;2023-04-28T18:44:20;99573.56;;;9.06;76.42
75208;BME280;63795;55.684;37.864;2023-04-28T18:49:21;99572.34;;;8.93;75.91
75208;BME280;63795;55.684;37.864;2023-04-28T18:54:23;99582.03;;;8.85;76.30
75208;BME280;63795;55.684;37.864;2023-04-28T18:59:25;99569.91;;;8.88;75.83
75208;BME280;63795;55.684;37.864;2023-04-28T19:04:26;99568.72;;;8.93;75.82
75208;BME280;63795;55.684;37.864;2023-04-28T19:09:27;99567.91;;;8.85;75.73
75208;BME280;63795;55.684;37.864;2023-04-28T19:14:27;99561.81;;;8.76;76.08
75208;BME280;63795;55.684;37.864;2023-04-28T19:19:28;99563.44;;;8.60;76.97
75208;BME280;63795;55.684;37.864;2023-04-28T19:24:29;99569.47;;;8.58;77.28
75208;BME280;63795;55.684;37.864;2023-04-28T19:29:30;99582.38;;;8.48;77.33
75208;BME280;63795;55.684;37.864;2023-04-28T19:34:30;99563.38;;;8.42;77.49
75208;BME280;63795;55.684;37.864;2023-04-28T19:39:32;99586.41;;;8.54;78.01
75208;BME280;63795;55.684;37.864;2023-04-28T19:44:32;99579.97;;;8.61;77.86
75208;BME280;63795;55.684;37.864;2023-04-28T19:49:33;99581.59;;;8.55;78.34
75208;BME280;63795;55.684;37.864;2023-04-28T19:54:34;99567.84;;;8.43;77.90
75208;BME280;63795;55.684;37.864;2023-04-28T19:59:36;99566.13;;;8.21;78.25
75208;BME280;63795;55.684;37.864;2023-04-28T20:04:37;99579.69;;;7.91;78.40
75208;BME280;63795;55.684;37.864;2023-04-28T20:09:38;99589.66;;;7.63;77.99
75208;BME280;63795;55.684;37.864;2023-04-28T20:14:39;99583.03;;;7.42;79.03
75208;BME280;63795;55.684;37.864;2023-04-28T20:19:39;99589.50;;;7.42;78.74
75208;BME280;63795;55.684;37.864;2023-04-28T20:24:40;99585.00;;;7.31;78.65
75208;BME280;63795;55.684;37.864;2023-04-28T20:29:41;99581.72;;;7.25;79.36
75208;BME280;63795;55.684;37.864;2023-04-28T20:34:42;99570.44;;;7.25;79.81
75208;BME280;63795;55.684;37.864;2023-04-28T20:39:43;99579.69;;;7.26;79.20
75208;BME280;63795;55.684;37.864;2023-04-28T20:44:43;99571.59;;;7.17;79.79
75208;BME280;63795;55.684;37.864;2023-04-28T20:49:45;99559.84;;;7.08;80.17
75208;BME280;63795;55.684;37.864;2023-04-28T20:54:46;99569.53;;;7.11;79.44
75208;BME280;63795;55.684;37.864;2023-04-28T20:59:47;99573.13;;;7.08;79.00
75208;BME280;63795;55.684;37.864;2023-04-28T21:04:47;99565.91;;;7.10;79.42
75208;BME280;63795;55.684;37.864;2023-04-28T21:09:50;99581.53;;;7.04;80.22
75208;BME280;63795;55.684;37.864;2023-04-28T21:14:51;99563.78;;;6.97;79.59
75208;BME280;63795;55.684;37.864;2023-04-28T21:19:53;99562.50;;;6.87;79.55
75208;BME280;63795;55.684;37.864;2023-04-28T21:24:54;99563.25;;;6.84;79.40
75208;BME280;63795;55.684;37.864;2023-04-28T21:29:55;99552.72;;;6.74;78.93
75208;BME280;63795;55.684;37.864;2023-04-28T21:34:55;99562.72;;;6.68;79.29
75208;BME280;63795;55.684;37.864;2023-04-28T21:39:56;99561.88;;;6.67;79.39
75208;BME280;63795;55.684;37.864;2023-04-28T21:45:00;99557.78;;;6.58;79.36
75208;BME280;63795;55.684;37.864;2023-04-28T21:50:01;99567.38;;;6.53;78.99
75208;BME280;63795;55.684;37.864;2023-04-28T21:55:01;99566.91;;;6.44;79.33
75208;BME280;63795;55.684;37.864;2023-04-28T22:00:02;99562.50;;;6.47;79.49
75208;BME280;63795;55.684;37.864;2023-04-28T22:05:03;99559.16;;;6.34;79.42
75208;BME280;63795;55.684;37.864;2023-04-28T22:10:04;99559.97;;;6.35;79.63
75208;BME280;63795;55.684;37.864;2023-04-28T22:15:06;99544.34;;;6.41;78.98
75208;BME280;63795;55.684;37.864;2023-04-28T22:20:07;99525.75;;;6.29;79.65
75208;BME280;63795;55.684;37.864;2023-04-28T22:25:07;99522.84;;;6.22;79.00
75208;BME280;63795;55.684;37.864;2023-04-28T22:30:08;99522.44;;;6.24;79.34
75208;BME280;63795;55.684;37.864;2023-04-28T22:35:12;99519.28;;;6.25;79.21
75208;BME280;63795;55.684;37.864;2023-04-28T22:40:13;99524.84;;;6.22;79.76
75208;BME280;63795;55.684;37.864;2023-04-28T22:45:14;99519.44;;;6.06;78.87
75208;BME280;63795;55.684;37.864;2023-04-28T22:50:15;99520.94;;;5.96;79.21
75208;BME280;63795;55.684;37.864;2023-04-28T22:55:16;99536.59;;;5.94;79.27
75208;BME280;63795;55.684;37.864;2023-04-28T23:00:16;99537.38;;;5.91;79.51
75208;BME280;63795;55.684;37.864;2023-04-28T23:05:17;99528.25;;;6.01;79.79
75208;BME280;63795;55.684;37.864;2023-04-28T23:10:17;99510.50;;;5.97;79.41
75208;BME280;63795;55.684;37.864;2023-04-28T23:15:18;99536.59;;;5.94;80.81
75208;BME280;63795;55.684;37.864;2023-04-28T23:20:18;99538.81;;;5.81;80.02
75208;BME280;63795;55.684;37.864;2023-04-28T23:25:19;99546.28;;;5.67;81.11
75208;BME280;63795;55.684;37.864;2023-04-28T23:30:19;99560.50;;;5.51;82.29
75208;BME280;63795;55.684;37.864;2023-04-28T23:35:20;99566.03;;;5.44;81.67
75208;BME280;63795;55.684;37.864;2023-04-28T23:40:20;99583.56;;;5.34;81.72
75208;BME280;63795;55.684;37.864;2023-04-28T23:45:21;99589.44;;;5.26;82.15
75208;BME280;63795;55.684;37.864;2023-04-28T23:50:21;99576.06;;;5.19;82.95
75208;BME280;63795;55.684;37.864;2023-04-28T23:55:23;99566.47;;;5.20;83.07
